createdAt,value
2022-10-26T00:00:33.514Z,62402.38
2022-10-26T00:03:00.176Z,62402.38
2022-10-26T00:05:26.930Z,62402.38
2022-10-26T00:07:53.675Z,62402.38
2022-10-26T00:10:21.816Z,62402.38
2022-10-26T00:12:50.718Z,62402.38
2022-10-26T00:15:18.005Z,62402.38
2022-10-26T00:17:46.237Z,62402.38
2022-10-26T00:20:13.743Z,62402.38
2022-10-26T00:22:40.683Z,62402.38
2022-10-26T00:25:08.007Z,62402.38
2022-10-26T00:27:34.888Z,62402.38
2022-10-26T00:30:01.601Z,62402.38
2022-10-26T00:32:28.566Z,97783.59
2022-10-26T00:34:56.642Z,97784.69
2022-10-26T00:37:23.313Z,97784.44
2022-10-26T00:39:49.931Z,97782.25
2022-10-26T00:42:20.491Z,97787.13
2022-10-26T00:44:58.854Z,97790.09
2022-10-26T00:47:33.489Z,97794.66
2022-10-26T00:50:07.015Z,97787.13
2022-10-26T00:52:34.257Z,97785.75
2022-10-26T00:55:01.049Z,97785.47
2022-10-26T00:57:28.220Z,97787.66
2022-10-26T00:59:57.911Z,97781.72
2022-10-26T01:02:24.675Z,97783.06
2022-10-26T01:04:53.632Z,97781.44
2022-10-26T01:09:54.947Z,97779.78
2022-10-26T01:12:21.560Z,97783.56
2022-10-26T01:14:48.475Z,97776.25
2022-10-26T01:17:30.710Z,97774.66
2022-10-26T01:20:30.016Z,97783.25
2022-10-26T01:23:05.835Z,97777.34
2022-10-26T01:26:01.707Z,97770.06
2022-10-26T01:28:42.400Z,97779.22
2022-10-26T01:31:13.797Z,97773.03
2022-10-26T01:33:44.271Z,97776.22
2022-10-26T01:36:13.777Z,97774.63
2022-10-26T01:38:52.472Z,97769.19
2022-10-26T01:41:27.020Z,97767.03
2022-10-26T01:43:57.056Z,97764.84
2022-10-26T01:46:27.208Z,97762.16
2022-10-26T01:48:59.595Z,97762.41
2022-10-26T01:51:27.705Z,97762.94
2022-10-26T01:53:54.639Z,97759.44
2022-10-26T01:56:25.351Z,97757.81
2022-10-26T01:59:13.594Z,97760.75
2022-10-26T02:02:14.233Z,97751.28
2022-10-26T02:04:56.880Z,97752.06
2022-10-26T02:07:31.895Z,97749.38
2022-10-26T02:10:08.218Z,97749.38
2022-10-26T02:12:44.045Z,97749.91
2022-10-26T02:15:21.405Z,97749.94
2022-10-26T02:17:54.545Z,97748.59
2022-10-26T02:20:25.407Z,97752.91
2022-10-26T02:22:54.868Z,97747.22
2022-10-26T02:25:27.385Z,97742.31
2022-10-26T02:27:57.806Z,97740.16
2022-10-26T02:30:25.067Z,97739.34
2022-10-26T02:32:56.636Z,97744.44
2022-10-26T02:35:27.561Z,97730.66
2022-10-26T02:37:57.411Z,97728.75
2022-10-26T02:40:27.505Z,97727.13
2022-10-26T02:42:57.786Z,97733.06
2022-10-26T02:45:28.287Z,97720.09
2022-10-26T02:47:57.181Z,97714.13
2022-10-26T02:50:29.807Z,97720.00
2022-10-26T02:53:05.613Z,97709.44
2022-10-26T02:55:36.761Z,97719.41
2022-10-26T02:58:09.281Z,97709.06
2022-10-26T03:00:36.045Z,97719.88
2022-10-26T03:03:04.970Z,97711.78
2022-10-26T03:05:32.956Z,97712.94
2022-10-26T03:08:00.534Z,97716.44
2022-10-26T03:10:27.363Z,97715.56
2022-10-26T03:12:54.127Z,97715.81
2022-10-26T03:15:20.974Z,97722.09
2022-10-26T03:17:48.137Z,97711.56
2022-10-26T03:20:16.699Z,97725.91
2022-10-26T03:22:43.425Z,97723.97
2022-10-26T03:25:10.035Z,97725.59
2022-10-26T03:27:37.906Z,97730.44
2022-10-26T03:30:05.845Z,97732.84
2022-10-26T03:32:32.440Z,97731.47
2022-10-26T03:34:59.085Z,97731.19
2022-10-26T03:37:27.119Z,97725.50
2022-10-26T03:39:53.770Z,97738.75
2022-10-26T03:42:20.530Z,97737.91
2022-10-26T03:44:48.312Z,97735.50
2022-10-26T03:47:14.981Z,97723.63
2022-10-26T03:49:41.599Z,97726.84
2022-10-26T03:52:08.242Z,97724.63
2022-10-26T03:54:36.450Z,97729.75
2022-10-26T03:57:03.050Z,97727.03
2022-10-26T03:59:29.742Z,97731.38
2022-10-26T04:01:57.884Z,97722.25
2022-10-26T04:04:25.033Z,97713.84
2022-10-26T04:06:51.823Z,97709.03
2022-10-26T04:09:18.466Z,97707.66
2022-10-26T04:11:46.467Z,97719.53
2022-10-26T04:14:13.296Z,97719.53
2022-10-26T04:16:40.109Z,97718.44
2022-10-26T04:19:06.902Z,97715.22
2022-10-26T04:21:33.707Z,97720.31
2022-10-26T04:24:00.375Z,97719.78
2022-10-26T04:26:27.299Z,97716.84
2022-10-26T04:28:55.374Z,97715.50
2022-10-26T04:31:22.075Z,97724.16
2022-10-26T04:33:48.789Z,97725.28
2022-10-26T04:36:15.367Z,97715.03
2022-10-26T04:38:41.995Z,97708.53
2022-10-26T04:41:08.618Z,97712.31
2022-10-26T04:43:35.245Z,97715.31
2022-10-26T04:46:03.311Z,97719.94
2022-10-26T04:48:30.062Z,97715.56
2022-10-26T04:50:59.059Z,97709.34
2022-10-26T04:53:25.702Z,97720.13
2022-10-26T04:55:56.513Z,97714.75
2022-10-26T04:58:23.088Z,97715.28
2022-10-26T05:00:49.721Z,97712.03
2022-10-26T05:03:17.725Z,97710.72
2022-10-26T05:05:44.302Z,97714.78
2022-10-26T05:08:10.937Z,97714.25
2022-10-26T05:10:37.559Z,97709.13
2022-10-26T05:13:04.207Z,97704.28
2022-10-26T05:15:30.915Z,97702.69
2022-10-26T05:17:59.230Z,97693.22
2022-10-26T05:20:31.387Z,97706.25
2022-10-26T05:22:59.109Z,97714.13
2022-10-26T05:25:26.606Z,97703.56
2022-10-26T05:27:57.503Z,97708.69
2022-10-26T05:30:24.120Z,97709.78
2022-10-26T05:32:54.031Z,97703.78
2022-10-26T05:35:20.859Z,97701.16
2022-10-26T05:37:48.884Z,97705.22
2022-10-26T05:40:16.642Z,97713.56
2022-10-26T05:42:43.340Z,97707.09
2022-10-26T05:45:10.598Z,97711.91
2022-10-26T05:47:38.447Z,97716.22
2022-10-26T05:50:06.158Z,97725.69
2022-10-26T05:52:39.127Z,97721.06
2022-10-26T05:55:08.485Z,97725.34
2022-10-26T05:57:36.074Z,97718.81
2022-10-26T06:00:06.670Z,97721.81
2022-10-26T06:02:44.693Z,97717.72
2022-10-26T06:05:18.989Z,97711.97
2022-10-26T06:07:46.200Z,97717.38
2022-10-26T06:10:15.516Z,97722.44
2022-10-26T06:12:42.862Z,97728.59
2022-10-26T06:15:15.933Z,97734.78
2022-10-26T06:17:53.725Z,97742.59
2022-10-26T06:20:36.167Z,97735.00
2022-10-26T06:23:17.689Z,97737.72
2022-10-26T06:25:51.483Z,97742.28
2022-10-26T06:28:28.514Z,97746.31
2022-10-26T06:30:56.245Z,97736.94
2022-10-26T06:33:29.554Z,97740.19
2022-10-26T06:36:08.797Z,97751.47
2022-10-26T06:38:38.033Z,97748.47
2022-10-26T06:41:07.114Z,97750.63
2022-10-26T06:43:35.824Z,97751.34
2022-10-26T06:46:13.580Z,97750.13
2022-10-26T06:48:49.785Z,97753.63
2022-10-26T06:51:17.533Z,97739.84
2022-10-26T06:53:51.873Z,97749.19
2022-10-26T06:56:20.662Z,97748.97
2022-10-26T06:58:50.017Z,97771.19
2022-10-26T07:01:18.188Z,97768.59
2022-10-26T07:03:45.063Z,97782.34
2022-10-26T07:06:11.832Z,97788.34
2022-10-26T07:08:38.529Z,97783.94
2022-10-26T07:11:05.761Z,97776.50
2022-10-26T07:13:34.003Z,97778.22
2022-10-26T07:16:01.682Z,97769.19
2022-10-26T07:18:28.406Z,97782.59
2022-10-26T07:20:55.154Z,97793.06
2022-10-26T07:23:23.201Z,97791.84
2022-10-26T07:25:49.918Z,97789.78
2022-10-26T07:28:16.646Z,62402.38
2022-10-26T07:30:44.744Z,62402.38
2022-10-26T07:33:13.084Z,62402.38
2022-10-26T07:35:40.386Z,62402.38
2022-10-26T07:38:07.319Z,62402.38
2022-10-26T07:40:34.594Z,62402.38
2022-10-26T07:43:01.894Z,62402.38
2022-10-26T07:45:30.925Z,62402.38
2022-10-26T07:47:58.903Z,62402.38
2022-10-26T07:50:25.900Z,62402.38
2022-10-26T07:52:52.929Z,62402.38
2022-10-26T07:55:20.371Z,62402.38
2022-10-26T07:57:49.695Z,62402.38
2022-10-26T08:00:21.573Z,62402.38
2022-10-26T08:02:48.227Z,62402.38
2022-10-26T08:05:16.601Z,62402.38
2022-10-26T08:07:44.505Z,62402.38
2022-10-26T08:10:12.474Z,62402.38
2022-10-26T08:12:39.663Z,62402.38
2022-10-26T08:15:07.470Z,62402.38
2022-10-26T08:17:34.145Z,62402.38
2022-10-26T08:20:00.844Z,62402.38
2022-10-26T08:22:30.965Z,62402.38
2022-10-26T08:24:57.659Z,62402.38
2022-10-26T08:27:27.863Z,62402.38
2022-10-26T08:29:54.474Z,62402.38
2022-10-26T08:32:21.182Z,62402.38
2022-10-26T08:34:47.864Z,62402.38
2022-10-26T08:37:14.599Z,62402.38
2022-10-26T08:39:42.689Z,62402.38
2022-10-26T08:42:14.800Z,62402.38
2022-10-26T08:44:46.366Z,62402.38
2022-10-26T08:47:19.750Z,62402.38
2022-10-26T08:49:52.481Z,62402.38
2022-10-26T08:52:25.085Z,62402.38
2022-10-26T08:54:55.602Z,62402.38
2022-10-26T08:57:27.008Z,62402.38
2022-10-26T08:59:59.254Z,62402.38
2022-10-26T09:02:26.286Z,62402.38
2022-10-26T09:04:54.168Z,62402.38
2022-10-26T09:07:33.549Z,62402.38
2022-10-26T09:10:11.937Z,62402.38
2022-10-26T09:12:48.389Z,62402.38
2022-10-26T09:15:23.625Z,62402.38
2022-10-26T09:18:00.031Z,62402.38
2022-10-26T09:20:57.703Z,62402.38
2022-10-26T09:23:44.383Z,62402.38
2022-10-26T09:26:14.706Z,97845.22
2022-10-26T09:28:44.939Z,97857.84
2022-10-26T09:31:16.399Z,97854.03
2022-10-26T09:33:43.142Z,97858.84
2022-10-26T09:36:16.745Z,97856.63
2022-10-26T09:38:47.375Z,97859.78
2022-10-26T09:41:25.126Z,97869.28
2022-10-26T09:43:58.987Z,97875.53
2022-10-26T09:46:31.133Z,97875.13
2022-10-26T09:51:35.045Z,97883.06
2022-10-26T09:54:03.086Z,97888.84
2022-10-26T09:56:32.152Z,97884.69
2022-10-26T09:59:07.247Z,97885.88
2022-10-26T10:01:38.263Z,97895.22
2022-10-26T10:04:28.254Z,97901.16
2022-10-26T10:07:14.042Z,97904.31
2022-10-26T10:09:40.808Z,97905.78
2022-10-26T10:12:19.763Z,97902.97
2022-10-26T10:14:56.687Z,97901.03
2022-10-26T10:17:24.559Z,97901.03
2022-10-26T10:19:52.034Z,97909.53
2022-10-26T10:22:23.635Z,97907.66
2022-10-26T10:24:54.502Z,97905.66
2022-10-26T10:27:25.224Z,97925.59
2022-10-26T10:29:53.724Z,97915.28
2022-10-26T10:32:22.347Z,97935.41
2022-10-26T10:34:49.653Z,97929.91
2022-10-26T10:37:25.401Z,97931.56
2022-10-26T10:39:57.080Z,97937.03
2022-10-26T10:42:29.926Z,97937.06
2022-10-26T10:44:57.844Z,97942.38
2022-10-26T10:47:27.335Z,97942.72
2022-10-26T10:49:58.863Z,97951.84
2022-10-26T10:52:27.588Z,97963.44
2022-10-26T10:55:03.159Z,97946.06
2022-10-26T10:57:41.182Z,97958.00
2022-10-26T11:00:11.553Z,97962.94
2022-10-26T11:03:05.483Z,97962.56
2022-10-26T11:05:45.797Z,97976.78
2022-10-26T11:08:19.779Z,97961.63
2022-10-26T11:10:51.967Z,97976.59
2022-10-26T11:13:23.921Z,97975.47
2022-10-26T11:15:55.947Z,97969.09
2022-10-26T11:18:30.540Z,97969.09
2022-10-26T11:21:03.076Z,97968.22
2022-10-26T11:23:36.442Z,97976.31
2022-10-26T11:26:11.194Z,97975.19
2022-10-26T11:28:47.951Z,97967.47
2022-10-26T11:31:20.554Z,97978.41
2022-10-26T11:33:54.582Z,97975.78
2022-10-26T11:36:24.778Z,97972.94
2022-10-26T11:38:59.942Z,97979.31
2022-10-26T11:41:34.210Z,97977.34
2022-10-26T11:44:12.413Z,97985.22
2022-10-26T11:46:43.202Z,97983.06
2022-10-26T11:49:17.457Z,97983.84
2022-10-26T11:51:49.605Z,97985.72
2022-10-26T11:56:57.099Z,97985.59
2022-10-26T11:59:29.317Z,97988.66
2022-10-26T12:02:05.461Z,97986.22
2022-10-26T12:04:35.627Z,97992.53
2022-10-26T12:07:08.536Z,97999.78
2022-10-26T12:09:39.773Z,97996.00
2022-10-26T12:12:10.891Z,97993.09
2022-10-26T12:14:44.728Z,98002.94
2022-10-26T12:17:18.014Z,97996.91
2022-10-26T12:19:51.863Z,98000.16
2022-10-26T12:22:20.837Z,98009.88
2022-10-26T12:25:05.905Z,98024.69
2022-10-26T12:27:50.578Z,98016.63
2022-10-26T12:30:28.185Z,98007.03
2022-10-26T12:32:57.428Z,98018.53
2022-10-26T12:35:36.446Z,98020.22
2022-10-26T12:38:48.131Z,98016.06
2022-10-26T12:41:26.424Z,98012.47
2022-10-26T12:44:23.763Z,98009.88
2022-10-26T12:46:51.763Z,98005.22
2022-10-26T12:49:54.349Z,98008.00
2022-10-26T12:52:26.240Z,62402.38
2022-10-26T12:55:24.648Z,62402.38
2022-10-26T12:58:04.169Z,62402.38
2022-10-26T13:00:33.471Z,62402.38
2022-10-26T13:03:17.927Z,62402.38
2022-10-26T13:06:01.055Z,62402.38
2022-10-26T13:08:28.705Z,62402.38
2022-10-26T13:11:05.308Z,98034.53
2022-10-26T13:13:34.118Z,98026.63
2022-10-26T13:16:02.141Z,98032.00
2022-10-26T13:18:30.763Z,98030.38
2022-10-26T13:21:07.307Z,98035.41
2022-10-26T13:23:37.686Z,98039.66
2022-10-26T13:26:07.933Z,98048.59
2022-10-26T13:28:44.857Z,98046.56
2022-10-26T13:31:50.696Z,98041.19
2022-10-26T13:34:20.960Z,98040.22
2022-10-26T13:36:53.251Z,98042.63
2022-10-26T13:39:23.996Z,98052.63
2022-10-26T13:41:53.739Z,98046.44
2022-10-26T13:44:26.049Z,98048.09
2022-10-26T13:46:58.334Z,98049.66
2022-10-26T13:49:31.330Z,98060.06
2022-10-26T13:52:03.975Z,98055.69
2022-10-26T13:54:34.631Z,98059.63
2022-10-26T13:57:10.641Z,98061.84
2022-10-26T13:59:38.795Z,98057.22
2022-10-26T14:02:05.852Z,98072.66
2022-10-26T14:04:33.741Z,98072.69
2022-10-26T14:07:00.312Z,98070.63
2022-10-26T14:09:28.939Z,98078.69
2022-10-26T14:12:01.790Z,98076.81
2022-10-26T14:14:29.565Z,98071.66
2022-10-26T14:16:56.712Z,98083.75
2022-10-26T14:19:25.240Z,98084.53
2022-10-26T14:21:53.353Z,98085.03
2022-10-26T14:24:27.552Z,98094.06
2022-10-26T14:27:14.540Z,98093.94
2022-10-26T14:29:40.988Z,98094.72
2022-10-26T14:32:19.748Z,98099.31
2022-10-26T14:34:46.799Z,98104.78
2022-10-26T14:37:18.984Z,98100.28
2022-10-26T14:39:47.775Z,98104.81
2022-10-26T14:42:16.053Z,98107.91
2022-10-26T14:44:42.903Z,98114.00
2022-10-26T14:47:13.071Z,98115.97
2022-10-26T14:49:45.498Z,98111.47
2022-10-26T14:52:17.081Z,98116.28
2022-10-26T14:54:56.241Z,98115.97
2022-10-26T14:57:35.785Z,98115.63
2022-10-26T15:00:04.618Z,98119.19
2022-10-26T15:02:31.060Z,98123.69
2022-10-26T15:04:58.511Z,98123.38
2022-10-26T15:07:33.993Z,98127.88
2022-10-26T15:10:01.791Z,98129.47
2022-10-26T15:12:32.753Z,98133.03
2022-10-26T15:15:06.291Z,98134.81
2022-10-26T15:17:36.721Z,98133.38
2022-10-26T15:20:05.023Z,98132.38
2022-10-26T15:22:32.446Z,98138.50
2022-10-26T15:25:03.413Z,98138.63
2022-10-26T15:27:30.192Z,98138.81
2022-10-26T15:30:09.193Z,98142.47
2022-10-26T15:32:35.812Z,98149.38
2022-10-26T15:35:20.816Z,98157.06
2022-10-26T15:37:47.652Z,98147.59
2022-10-26T15:40:16.266Z,98149.31
2022-10-26T15:42:45.241Z,98155.22
2022-10-26T15:45:15.475Z,98158.75
2022-10-26T15:47:42.087Z,98155.34
2022-10-26T15:50:11.722Z,98165.09
2022-10-26T15:52:38.433Z,98164.56
2022-10-26T15:55:05.339Z,98152.69
2022-10-26T15:57:33.210Z,98161.66
2022-10-26T15:59:59.778Z,98167.78
2022-10-26T16:02:27.432Z,98165.53
2022-10-26T16:04:54.188Z,98166.94
2022-10-26T16:07:21.499Z,98175.91
2022-10-26T16:09:48.437Z,98181.94
2022-10-26T16:12:15.265Z,98182.97
2022-10-26T16:15:03.925Z,98181.41
2022-10-26T16:17:29.636Z,98183.72
2022-10-26T16:19:56.119Z,98194.00
2022-10-26T16:22:22.650Z,98198.75
2022-10-26T16:24:49.165Z,98203.94
2022-10-26T16:27:15.764Z,98200.53
2022-10-26T16:29:43.556Z,98199.13
2022-10-26T16:32:10.220Z,98200.09
2022-10-26T16:34:36.779Z,98204.66
2022-10-26T16:37:03.305Z,98208.88
2022-10-26T16:39:29.909Z,98203.22
2022-10-26T16:41:56.691Z,98208.56
2022-10-26T16:44:23.147Z,98220.53
2022-10-26T16:46:51.006Z,98218.59
2022-10-26T16:49:18.160Z,98227.28
2022-10-26T16:51:44.766Z,98221.63
2022-10-26T16:54:11.354Z,98229.56
2022-10-26T16:56:37.775Z,98236.19
2022-10-26T16:59:04.427Z,98238.56
2022-10-26T17:01:31.153Z,98241.88
2022-10-26T17:04:00.981Z,98241.19
2022-10-26T17:06:27.450Z,98247.28
2022-10-26T17:08:53.925Z,98252.63
2022-10-26T17:11:21.097Z,98250.06
2022-10-26T17:13:48.004Z,98253.44
2022-10-26T17:16:16.089Z,98254.22
2022-10-26T17:18:43.424Z,98255.69
2022-10-26T17:21:12.429Z,98254.69
2022-10-26T17:23:38.885Z,98260.06
2022-10-26T17:26:06.487Z,98271.78
2022-10-26T17:28:33.311Z,98275.16
2022-10-26T17:31:03.521Z,98277.66
2022-10-26T17:33:31.342Z,98285.88
2022-10-26T17:35:57.810Z,98287.84
2022-10-26T17:38:25.719Z,98292.53
2022-10-26T17:40:52.186Z,98296.34
2022-10-26T17:43:18.931Z,98305.66
2022-10-26T17:45:45.483Z,98303.28
2022-10-26T17:48:12.029Z,98316.31
2022-10-26T17:50:38.628Z,98309.59
2022-10-26T17:53:07.534Z,98317.25
2022-10-26T17:55:35.481Z,98317.56
2022-10-26T17:58:01.912Z,98325.47
2022-10-26T18:00:28.499Z,98325.47
2022-10-26T18:02:55.181Z,98324.94
2022-10-26T18:05:21.854Z,98326.88
2022-10-26T18:07:48.707Z,98330.47
2022-10-26T18:10:36.463Z,98329.91
2022-10-26T18:13:03.453Z,98340.50
2022-10-26T18:15:30.071Z,98344.34
2022-10-26T18:17:58.456Z,98344.84
2022-10-26T18:20:27.470Z,62402.38
2022-10-26T18:22:54.104Z,98353.63
2022-10-26T18:25:20.607Z,98355.78
2022-10-26T18:27:48.564Z,98361.78
2022-10-26T18:30:16.697Z,98365.91
2022-10-26T18:32:43.478Z,98365.09
2022-10-26T18:35:11.827Z,62402.38
2022-10-26T18:37:39.714Z,62402.38
2022-10-26T18:40:07.279Z,62402.38
2022-10-26T18:42:33.992Z,98373.31
2022-10-26T18:45:02.951Z,98365.97
2022-10-26T18:47:31.389Z,98367.91
2022-10-26T18:50:01.471Z,98375.22
2022-10-26T18:52:28.407Z,98367.63
2022-10-26T18:54:56.244Z,98379.00
2022-10-26T18:57:27.115Z,98380.94
2022-10-26T18:59:55.121Z,98380.69
2022-10-26T19:02:24.801Z,98385.84
2022-10-26T19:04:53.765Z,98391.25
2022-10-26T19:07:20.789Z,98391.00
2022-10-26T19:09:47.215Z,62402.38
2022-10-26T19:12:14.355Z,62402.38
2022-10-26T19:14:41.330Z,62402.38
2022-10-26T19:17:08.297Z,62402.38
2022-10-26T19:19:35.658Z,62402.38
2022-10-26T19:22:04.623Z,62402.38
2022-10-26T19:24:33.186Z,62402.38
2022-10-26T19:27:01.020Z,62402.38
2022-10-26T19:29:28.169Z,62402.38
2022-10-26T19:31:55.262Z,62402.38
2022-10-26T19:34:24.464Z,62402.38
2022-10-26T19:36:53.207Z,62402.38
2022-10-26T19:39:22.910Z,62402.38
2022-10-26T19:41:49.858Z,62402.38
2022-10-26T19:44:20.726Z,62402.38
2022-10-26T19:46:51.912Z,62402.38
2022-10-26T19:49:20.357Z,62402.38
2022-10-26T19:51:48.470Z,62402.38
2022-10-26T19:54:16.460Z,62402.38
2022-10-26T19:56:45.805Z,62402.38
2022-10-26T19:59:14.451Z,62402.38
2022-10-26T20:01:42.641Z,62402.38
2022-10-26T20:04:10.514Z,62402.38
2022-10-26T20:06:38.819Z,62402.38
2022-10-26T20:09:06.708Z,62402.38
2022-10-26T20:11:37.101Z,62402.38
2022-10-26T20:14:08.815Z,62402.38
2022-10-26T20:16:37.516Z,62402.38
2022-10-26T20:19:05.553Z,62402.38
2022-10-26T20:21:32.454Z,62402.38
2022-10-26T20:23:59.150Z,62402.38
2022-10-26T20:26:28.493Z,62402.38
2022-10-26T20:28:56.472Z,62402.38
2022-10-26T20:31:24.903Z,62402.38
2022-10-26T20:33:53.224Z,62402.38
2022-10-26T20:36:20.790Z,62402.38
2022-10-26T20:38:49.058Z,62402.38
2022-10-26T20:41:16.494Z,62402.38
2022-10-26T20:43:44.619Z,62402.38
2022-10-26T20:46:17.327Z,62402.38
2022-10-26T20:48:46.309Z,62402.38
2022-10-26T20:51:19.783Z,62402.38
2022-10-26T20:53:55.211Z,62402.38
2022-10-26T20:56:25.415Z,62402.38
2022-10-26T20:58:56.034Z,62402.38
2022-10-26T21:01:25.549Z,62402.38
2022-10-26T21:03:55.728Z,62402.38
2022-10-26T21:06:25.657Z,62402.38
2022-10-26T21:08:53.577Z,62402.38
2022-10-26T21:11:23.099Z,62402.38
2022-10-26T21:13:52.230Z,62402.38
2022-10-26T21:16:19.705Z,62402.38
2022-10-26T21:18:46.703Z,62402.38
2022-10-26T21:21:14.993Z,62402.38
2022-10-26T21:23:41.769Z,62402.38
2022-10-26T21:26:09.235Z,62402.38
2022-10-26T21:28:37.397Z,62402.38
2022-10-26T21:31:05.225Z,62402.38
2022-10-26T21:33:32.254Z,62402.38
2022-10-26T21:35:59.411Z,62402.38
2022-10-26T21:38:28.462Z,98499.94
2022-10-26T21:41:02.784Z,98501.19
2022-10-26T21:43:29.740Z,98506.03
2022-10-26T21:45:57.010Z,98506.53
2022-10-26T21:48:23.800Z,98508.66
2022-10-26T21:50:50.478Z,98507.03
2022-10-26T21:53:17.131Z,98511.06
2022-10-26T21:55:45.250Z,98520.47
2022-10-26T21:58:13.852Z,98516.09
2022-10-26T22:00:40.698Z,98518.31
2022-10-26T22:03:07.488Z,98519.41
2022-10-26T22:05:34.126Z,98512.13
2022-10-26T22:08:00.832Z,98515.63
2022-10-26T22:10:27.494Z,98510.00
2022-10-26T22:12:55.534Z,62402.38
2022-10-26T22:15:22.235Z,62402.38
2022-10-26T22:17:49.205Z,62402.38
2022-10-26T22:20:16.452Z,62402.38
2022-10-26T22:22:43.051Z,62402.38
2022-10-26T22:25:09.939Z,62402.38
2022-10-26T22:27:36.614Z,62402.38
2022-10-26T22:30:06.941Z,62402.38
2022-10-26T22:32:33.688Z,62402.38
2022-10-26T22:35:10.877Z,62402.38
2022-10-26T22:37:47.060Z,62402.38
2022-10-26T22:40:13.897Z,62402.38
2022-10-26T22:42:40.540Z,62402.38
2022-10-26T22:45:09.694Z,62402.38
2022-10-26T22:47:36.323Z,62402.38
2022-10-26T22:50:03.182Z,62402.38
2022-10-26T22:52:29.839Z,62402.38
2022-10-26T22:54:56.536Z,62402.38
2022-10-26T22:57:23.181Z,62402.38
2022-10-26T22:59:49.853Z,62402.38
2022-10-26T23:02:17.873Z,62402.38
2022-10-26T23:04:44.743Z,62402.38
2022-10-26T23:07:11.334Z,62402.38
2022-10-26T23:09:37.969Z,62402.38
2022-10-26T23:12:04.991Z,62402.38
2022-10-26T23:14:31.605Z,62402.38
2022-10-26T23:16:58.260Z,62402.38
2022-10-26T23:19:26.271Z,62402.38
2022-10-26T23:21:53.011Z,62402.38
2022-10-26T23:24:19.629Z,62402.38
2022-10-26T23:26:46.264Z,62402.38
2022-10-26T23:29:12.980Z,62402.38
2022-10-26T23:31:39.662Z,62402.38
2022-10-26T23:34:06.378Z,62402.38
2022-10-26T23:36:34.427Z,62402.38
2022-10-26T23:39:01.351Z,62402.38
2022-10-26T23:41:28.943Z,62402.38
2022-10-26T23:43:55.630Z,62402.38
2022-10-26T23:46:22.252Z,98553.72
2022-10-26T23:48:48.930Z,98552.41
2022-10-26T23:51:15.555Z,98554.00
2022-10-26T23:53:43.554Z,98553.69
2022-10-26T23:56:10.185Z,98559.09
2022-10-26T23:58:36.851Z,98551.78
